createdAt,value
2022-08-07T00:01:43.049Z,101580.38
2022-08-07T00:06:35.026Z,101573.97
2022-08-07T00:11:47.959Z,101560.94
2022-08-07T00:17:02.841Z,101555.06
2022-08-07T00:22:05.334Z,101564.88
2022-08-07T00:27:09.333Z,101557.28
2022-08-07T00:32:14.221Z,101558.13
2022-08-07T00:37:17.896Z,101556.94
2022-08-07T00:42:29.006Z,101556.28
2022-08-07T00:48:08.089Z,101563.22
2022-08-07T00:52:54.156Z,101557.16
2022-08-07T00:57:56.949Z,101568.78
2022-08-07T01:02:59.406Z,101564.75
2022-08-07T01:08:01.545Z,101566.25
2022-08-07T01:13:04.097Z,101569.31
2022-08-07T01:18:07.072Z,101564.56
2022-08-07T01:23:15.425Z,101555.63
2022-08-07T01:28:18.360Z,101552.59
2022-08-07T01:33:24.941Z,101562.88
2022-08-07T01:38:47.459Z,101565.94
2022-08-07T01:43:57.130Z,101561.00
2022-08-07T01:49:00.072Z,101561.88
2022-08-07T01:54:11.745Z,101550.22
2022-08-07T01:59:34.796Z,101548.19
2022-08-07T02:04:52.560Z,101551.59
2022-08-07T02:10:03.183Z,101552.44
2022-08-07T02:15:12.742Z,101541.44
2022-08-07T02:20:23.270Z,101529.63
2022-08-07T02:26:10.464Z,101525.59
2022-08-07T02:30:55.441Z,101529.78
2022-08-07T02:36:27.219Z,101536.03
2022-08-07T02:41:22.893Z,101541.28
2022-08-07T02:46:38.241Z,101523.56
2022-08-07T02:51:54.289Z,101525.25
2022-08-07T02:57:01.740Z,101534.38
2022-08-07T03:02:05.100Z,101545.50
2022-08-07T03:07:10.662Z,101546.69
2022-08-07T03:12:22.368Z,101544.34
2022-08-07T03:17:53.576Z,101548.38
2022-08-07T03:23:00.098Z,101548.19
2022-08-07T03:28:09.488Z,101540.47
2022-08-07T03:33:32.296Z,101545.66
2022-08-07T03:38:45.399Z,101549.03
2022-08-07T03:43:56.809Z,101538.78
2022-08-07T03:49:04.414Z,101548.38
2022-08-07T03:54:36.461Z,101545.19
2022-08-07T03:59:46.675Z,101530.47
2022-08-07T04:05:00.283Z,101531.63
2022-08-07T04:10:04.971Z,101526.59
2022-08-07T04:15:08.992Z,101531.16
2022-08-07T04:20:14.784Z,101532.47
2022-08-07T04:25:19.043Z,101543.59
2022-08-07T04:30:43.969Z,101549.88
2022-08-07T04:35:53.910Z,101557.13
2022-08-07T04:40:59.890Z,101560.47
2022-08-07T04:46:34.482Z,101554.44
2022-08-07T04:52:12.709Z,101552.38
2022-08-07T04:58:14.297Z,101558.25
2022-08-07T05:03:17.052Z,101562.16
2022-08-07T05:09:45.455Z,101567.19
2022-08-07T05:15:04.219Z,101569.09
2022-08-07T05:20:11.936Z,101570.59
2022-08-07T05:25:25.615Z,101578.84
2022-08-07T05:30:42.737Z,101591.69
2022-08-07T05:35:46.424Z,101591.06
2022-08-07T05:40:51.922Z,101592.38
2022-08-07T05:45:58.126Z,101598.28
2022-08-07T05:51:03.393Z,101591.53
2022-08-07T05:56:09.515Z,101608.38
2022-08-07T06:01:21.194Z,101610.59
2022-08-07T06:06:29.622Z,101608.75
2022-08-07T06:11:37.593Z,101614.47
2022-08-07T06:16:44.149Z,101619.19
2022-08-07T06:22:14.940Z,101615.00
2022-08-07T06:27:59.990Z,101622.09
2022-08-07T06:32:46.172Z,101626.28
2022-08-07T06:37:48.447Z,101628.66
2022-08-07T06:42:57.544Z,101623.59
2022-08-07T06:48:11.756Z,101631.53
2022-08-07T06:55:27.948Z,101629.31
2022-08-07T07:00:12.759Z,101606.72
2022-08-07T07:04:32.534Z,101628.97
2022-08-07T07:09:36.232Z,101626.97
2022-08-07T07:14:42.528Z,101621.03
2022-08-07T07:19:57.315Z,101630.34
2022-08-07T07:26:31.054Z,101627.44
2022-08-07T07:30:38.038Z,101625.91
2022-08-07T07:36:04.579Z,101618.03
2022-08-07T07:41:09.340Z,101631.16
2022-08-07T07:46:49.989Z,101635.41
2022-08-07T07:51:57.531Z,101630.16
2022-08-07T07:57:01.447Z,101643.97
2022-08-07T08:02:10.316Z,101631.84
2022-08-07T08:07:14.309Z,101641.16
2022-08-07T08:12:50.063Z,101642.63
2022-08-07T08:17:57.356Z,101634.38
2022-08-07T08:23:29.259Z,101633.84
2022-08-07T08:28:44.829Z,101635.41
2022-08-07T08:33:50.141Z,101637.59
2022-08-07T08:39:01.850Z,101642.16
2022-08-07T08:44:16.429Z,101643.66
2022-08-07T08:50:04.545Z,101656.13
2022-08-07T08:55:21.050Z,101659.50
2022-08-07T09:00:52.882Z,101659.69
2022-08-07T09:06:10.498Z,101666.94
2022-08-07T09:11:14.073Z,101663.59
2022-08-07T09:16:34.596Z,101662.38
2022-08-07T09:24:32.667Z,101671.81
2022-08-07T09:30:01.165Z,101670.31
2022-08-07T09:34:26.327Z,101664.06
2022-08-07T09:39:53.928Z,101666.22
2022-08-07T09:47:50.519Z,101671.47
2022-08-07T09:50:54.874Z,101670.09
2022-08-07T09:56:37.634Z,101678.03
2022-08-07T10:01:57.984Z,101666.41
2022-08-07T10:07:25.710Z,101673.66
2022-08-07T10:14:00.862Z,101666.91
2022-08-07T10:19:11.090Z,101669.09
2022-08-07T10:24:41.299Z,101664.84
2022-08-07T10:29:53.296Z,101664.22
2022-08-07T10:35:20.358Z,101663.53
2022-08-07T10:40:45.394Z,101638.38
2022-08-07T10:45:58.429Z,101636.34
2022-08-07T10:51:05.320Z,101650.16
2022-08-07T10:56:55.104Z,101650.78
2022-08-07T11:02:33.057Z,101647.06
2022-08-07T11:07:59.150Z,101635.09
2022-08-07T11:14:43.877Z,101645.69
2022-08-07T11:19:32.048Z,101641.13
2022-08-07T11:24:45.654Z,101639.78
2022-08-07T11:29:53.905Z,101639.97
2022-08-07T11:35:26.719Z,101644.66
2022-08-07T11:40:49.743Z,101633.47
2022-08-07T11:46:00.358Z,101639.44
2022-08-07T11:51:40.752Z,101634.88
2022-08-07T11:57:02.540Z,101641.28
2022-08-07T12:02:20.560Z,101637.72
2022-08-07T12:07:53.305Z,101630.47
2022-08-07T12:13:17.188Z,101637.38
2022-08-07T12:19:05.441Z,101621.94
2022-08-07T12:24:38.196Z,101616.00
2022-08-07T12:29:47.008Z,101618.84
2022-08-07T12:34:55.943Z,101609.25
2022-08-07T12:39:59.366Z,101593.66
2022-08-07T12:45:09.418Z,101598.34
2022-08-07T12:50:38.929Z,101596.69
2022-08-07T12:56:02.579Z,101599.19
2022-08-07T13:01:18.673Z,101594.91
2022-08-07T13:07:01.334Z,101597.47
2022-08-07T13:12:28.762Z,101589.72
2022-08-07T13:17:52.673Z,101591.19
2022-08-07T13:24:00.064Z,101601.00
2022-08-07T13:28:47.904Z,101589.22
2022-08-07T13:34:34.408Z,101580.47
2022-08-07T13:40:33.517Z,101586.03
2022-08-07T13:46:20.839Z,101576.91
2022-08-07T13:50:44.831Z,101574.84
2022-08-07T13:56:03.241Z,101573.50
2022-08-07T14:01:20.376Z,101546.66
2022-08-07T14:06:32.599Z,101562.66
2022-08-07T14:11:53.350Z,101543.72
2022-08-07T14:17:32.342Z,101535.63
2022-08-07T14:22:34.551Z,101528.34
2022-08-07T14:28:19.854Z,101530.69
2022-08-07T14:33:05.449Z,101525.25
2022-08-07T14:38:09.717Z,101518.00
2022-08-07T14:48:57.718Z,101514.44
2022-08-07T15:00:03.370Z,101499.06
2022-08-07T15:04:53.155Z,101493.47
2022-08-07T15:10:02.022Z,101499.53
2022-08-07T15:15:21.398Z,101494.50
2022-08-07T15:25:56.573Z,101487.69
2022-08-07T15:31:05.874Z,101478.09
2022-08-07T15:36:09.962Z,101485.34
2022-08-07T15:46:51.970Z,101459.03
2022-08-07T15:52:10.723Z,101475.84
2022-08-07T15:57:39.351Z,101482.09
2022-08-07T16:02:49.443Z,101480.22
2022-08-07T16:08:30.537Z,101472.97
2022-08-07T16:13:59.644Z,101470.94
2022-08-07T16:19:59.686Z,101473.13
2022-08-07T16:25:22.857Z,101467.72
2022-08-07T16:30:32.574Z,101468.97
2022-08-07T16:35:50.739Z,101478.19
2022-08-07T16:41:20.948Z,101471.75
2022-08-07T16:47:04.852Z,101475.63
2022-08-07T16:52:51.637Z,101473.22
2022-08-07T16:58:01.596Z,101486.34
2022-08-07T17:03:17.044Z,101485.25
2022-08-07T17:09:08.790Z,101487.03
2022-08-07T17:14:17.844Z,101487.69
2022-08-07T17:20:00.414Z,101488.50
2022-08-07T17:25:19.353Z,101501.00
2022-08-07T17:30:26.622Z,101510.81
2022-08-07T17:36:05.605Z,101501.22
2022-08-07T17:42:02.332Z,101501.84
2022-08-07T17:47:05.917Z,101520.63
2022-08-07T17:52:19.044Z,101517.19
2022-08-07T17:57:58.822Z,101520.06
2022-08-07T18:03:28.300Z,101523.78
2022-08-07T18:09:02.309Z,101526.81
2022-08-07T18:14:29.120Z,101520.78
2022-08-07T18:21:08.598Z,101535.28
2022-08-07T18:25:40.879Z,101543.50
2022-08-07T18:30:58.619Z,101536.41
2022-08-07T18:36:17.325Z,101537.31
2022-08-07T18:41:44.881Z,101547.94
2022-08-07T18:46:58.208Z,101552.91
2022-08-07T18:52:52.939Z,101559.03
2022-08-07T18:57:58.561Z,101539.97
2022-08-07T19:03:11.668Z,101545.09
2022-08-07T19:08:31.970Z,101552.38
2022-08-07T19:13:49.929Z,101556.47
2022-08-07T19:19:00.264Z,101565.13
2022-08-07T19:24:08.060Z,101579.84
2022-08-07T19:31:05.898Z,101583.25
2022-08-07T19:34:38.588Z,101578.00
2022-08-07T19:39:56.877Z,101583.25
2022-08-07T19:45:08.208Z,101578.34
2022-08-07T19:50:43.755Z,101577.13
2022-08-07T19:55:56.353Z,101561.19
2022-08-07T20:00:58.048Z,101569.97
2022-08-07T20:06:03.350Z,101574.38
2022-08-07T20:11:10.783Z,101577.25
2022-08-07T20:16:32.090Z,101580.69
2022-08-07T20:21:47.664Z,101588.25
2022-08-07T20:26:54.842Z,101580.34
2022-08-07T20:32:00.158Z,101571.84
2022-08-07T20:37:06.000Z,101571.84
2022-08-07T20:42:11.914Z,101558.50
2022-08-07T20:47:26.795Z,101564.75
2022-08-07T20:52:51.080Z,101546.91
2022-08-07T20:58:02.331Z,101564.75
2022-08-07T21:03:07.178Z,101557.13
2022-08-07T21:08:14.873Z,101557.78
2022-08-07T21:13:24.775Z,101565.72
2022-08-07T21:18:51.215Z,101555.56
2022-08-07T21:24:13.029Z,101559.28
2022-08-07T21:29:30.362Z,101565.88
2022-08-07T21:34:48.602Z,101568.59
2022-08-07T21:40:03.730Z,101571.13
2022-08-07T21:46:04.893Z,101553.75
2022-08-07T21:50:47.053Z,101569.81
2022-08-07T21:56:35.910Z,101564.75
2022-08-07T22:02:07.499Z,101548.22
2022-08-07T22:07:16.087Z,101554.31
2022-08-07T22:12:57.397Z,101541.44
2022-08-07T22:18:06.486Z,101533.56
2022-08-07T22:23:21.628Z,101534.59
2022-08-07T22:28:53.640Z,101554.81
2022-08-07T22:34:04.801Z,101549.44
2022-08-07T22:39:52.485Z,101552.34
2022-08-07T22:45:01.972Z,101558.75
2022-08-07T22:50:35.624Z,101554.78
2022-08-07T22:55:48.474Z,101563.88
2022-08-07T23:07:54.266Z,101558.19
2022-08-07T23:13:29.142Z,101563.28
2022-08-07T23:18:31.965Z,101561.75
2022-08-07T23:24:17.861Z,101552.50
2022-08-07T23:29:43.253Z,101555.88
2022-08-07T23:35:13.946Z,101562.97
2022-08-07T23:40:32.379Z,101572.09
2022-08-07T23:46:07.596Z,101553.75
2022-08-07T23:53:05.524Z,101571.28
2022-08-07T23:56:58.843Z,101564.19
